Jaskul, Russia
Current Conditions -  °F | °C
As of 7:00 PM on Friday 24 Oct 2014 (Local Time) from URWI Reporting Station
Overcast Overcast  
Wind Chill: 17°   Ceiling: 4000
Heat Index: 28°   Visibility: 6mi
Dew Point: 21°   Wind: 16mph
Humidity: 74%   Direction: 40°NE
Pressure: 30.3"   Gusts: NA
Location:  46.18°N, 45.35°E
Report Text: URWI 241600Z 04007MPS 9999 OVC040CB M02/M06 Q1026 NOSIG
Loading
Personal Weather Stations






























Interactive Weather Map
Tropical Storm Tracking
New forecast layout! Learn more

10-Day Weather Forecast

Advertisements
Track Severe Weather on mobile